KTPH/TPH METAR and TAF weather

Enter ICAO airport designator
Station Type Date Time Source
KTPH METAR 2022/08/12 13:56 UTC NOAA

KTPH 121356Z AUTO 02008KT 10SM CLR 19/10 A3022 RMK AO2 SLP152 T01890100


Station Type Date Time Source
KTPH Decoded METAR 2022/08/12 13:56 UTC NOAA

TONOPAH AIRPORT, NV, United States (KTPH) 38-02N 117-05W 1652M
Aug 12, 2022 - 09:56 AM EDT / 2022.08.12 1356 UTC
Wind: from the NNE (020 degrees) at 9 MPH (8 KT):0
Visibility: 10 mile(s):0
Sky conditions: clear
Temperature: 66.0 F (18.9 C)
Dew Point: 50.0 F (10.0 C)
Relative Humidity: 56%
Pressure (altimeter): 30.22 in. Hg (1023 hPa)
ob: KTPH 121356Z AUTO 02008KT 10SM CLR 19/10 A3022 RMK AO2 SLP152 T01890100
cycle: 14

Station Type Date Time Source
KTPH TAF 2022/08/12 12:24 UTC NOAA

TAF KTPH 121121Z 1212/1312 VRB06KT P6SM SKC
FM121900 20010G20KT P6SM SCT080
FM130300 VRB05KT P6SM SKC

Example: see airport list